sensor_id;sensor_type;location;lat;lon;timestamp;temperature;humidity
16273;DHT22;8244;50.044;9.006;2023-09-12T00:01:51;19.00;99.90
16273;DHT22;8244;50.044;9.006;2023-09-12T00:06:53;18.90;99.90
16273;DHT22;8244;50.044;9.006;2023-09-12T00:11:56;18.80;99.90
16273;DHT22;8244;50.044;9.006;2023-09-12T00:16:58;18.70;99.90
16273;DHT22;8244;50.044;9.006;2023-09-12T00:21:59;18.70;99.90
16273;DHT22;8244;50.044;9.006;2023-09-12T00:27:03;18.60;99.90
16273;DHT22;8244;50.044;9.006;2023-09-12T00:32:05;18.50;99.90
16273;DHT22;8244;50.044;9.006;2023-09-12T00:37:07;18.40;99.90
16273;DHT22;8244;50.044;9.006;2023-09-12T00:42:10;18.30;99.90
16273;DHT22;8244;50.044;9.006;2023-09-12T00:47:12;18.20;99.90
16273;DHT22;8244;50.044;9.006;2023-09-12T00:52:14;18.20;99.90
16273;DHT22;8244;50.044;9.006;2023-09-12T00:57:18;18.10;99.90
16273;DHT22;8244;50.044;9.006;2023-09-12T01:02:20;18.10;99.90
16273;DHT22;8244;50.044;9.006;2023-09-12T01:07:22;18.00;99.90
16273;DHT22;8244;50.044;9.006;2023-09-12T01:12:25;17.90;99.90
16273;DHT22;8244;50.044;9.006;2023-09-12T01:17:27;17.80;99.90
16273;DHT22;8244;50.044;9.006;2023-09-12T01:22:53;17.80;99.90
16273;DHT22;8244;50.044;9.006;2023-09-12T01:28:01;17.70;99.90
16273;DHT22;8244;50.044;9.006;2023-09-12T01:33:03;17.60;99.90
16273;DHT22;8244;50.044;9.006;2023-09-12T01:38:05;17.60;99.90
16273;DHT22;8244;50.044;9.006;2023-09-12T01:43:09;17.50;99.90
16273;DHT22;8244;50.044;9.006;2023-09-12T01:48:11;17.50;99.90
16273;DHT22;8244;50.044;9.006;2023-09-12T01:53:14;17.50;99.90
16273;DHT22;8244;50.044;9.006;2023-09-12T01:58:17;17.40;99.90
16273;DHT22;8244;50.044;9.006;2023-09-12T02:03:19;17.30;99.90
16273;DHT22;8244;50.044;9.006;2023-09-12T02:08:20;17.20;99.90
16273;DHT22;8244;50.044;9.006;2023-09-12T02:13:23;17.20;99.90
16273;DHT22;8244;50.044;9.006;2023-09-12T02:18:25;17.20;99.90
16273;DHT22;8244;50.044;9.006;2023-09-12T02:23:27;17.10;99.90
16273;DHT22;8244;50.044;9.006;2023-09-12T02:28:30;17.10;99.90
16273;DHT22;8244;50.044;9.006;2023-09-12T02:33:31;17.00;99.90
16273;DHT22;8244;50.044;9.006;2023-09-12T02:38:33;17.00;99.90
16273;DHT22;8244;50.044;9.006;2023-09-12T02:43:36;16.90;99.90
16273;DHT22;8244;50.044;9.006;2023-09-12T02:48:38;16.80;99.90
16273;DHT22;8244;50.044;9.006;2023-09-12T02:53:40;16.80;99.90
16273;DHT22;8244;50.044;9.006;2023-09-12T02:58:46;16.70;99.90
16273;DHT22;8244;50.044;9.006;2023-09-12T03:03:48;16.70;99.90
16273;DHT22;8244;50.044;9.006;2023-09-12T03:08:50;16.60;99.90
16273;DHT22;8244;50.044;9.006;2023-09-12T03:13:54;16.60;99.90
16273;DHT22;8244;50.044;9.006;2023-09-12T03:18:55;16.60;99.90
16273;DHT22;8244;50.044;9.006;2023-09-12T03:23:57;16.60;99.90
16273;DHT22;8244;50.044;9.006;2023-09-12T03:29:00;16.60;99.90
16273;DHT22;8244;50.044;9.006;2023-09-12T03:34:02;16.50;99.90
16273;DHT22;8244;50.044;9.006;2023-09-12T03:39:03;16.50;99.90
16273;DHT22;8244;50.044;9.006;2023-09-12T03:44:10;16.40;99.90
16273;DHT22;8244;50.044;9.006;2023-09-12T03:49:11;16.50;99.90
16273;DHT22;8244;50.044;9.006;2023-09-12T03:54:13;16.40;99.90
16273;DHT22;8244;50.044;9.006;2023-09-12T03:59:16;16.40;99.90
16273;DHT22;8244;50.044;9.006;2023-09-12T04:04:18;16.40;99.90
16273;DHT22;8244;50.044;9.006;2023-09-12T04:09:19;16.30;99.90
16273;DHT22;8244;50.044;9.006;2023-09-12T04:14:22;16.30;99.90
16273;DHT22;8244;50.044;9.006;2023-09-12T04:19:24;16.40;99.90
16273;DHT22;8244;50.044;9.006;2023-09-12T04:24:26;16.40;99.90
16273;DHT22;8244;50.044;9.006;2023-09-12T04:29:32;16.40;99.90
16273;DHT22;8244;50.044;9.006;2023-09-12T04:34:34;16.40;99.90
16273;DHT22;8244;50.044;9.006;2023-09-12T04:39:35;16.50;99.90
16273;DHT22;8244;50.044;9.006;2023-09-12T04:44:40;16.50;99.90
16273;DHT22;8244;50.044;9.006;2023-09-12T04:49:43;16.60;99.90
16273;DHT22;8244;50.044;9.006;2023-09-12T04:54:45;16.60;99.90
16273;DHT22;8244;50.044;9.006;2023-09-12T04:59:48;16.70;99.90
16273;DHT22;8244;50.044;9.006;2023-09-12T05:04:49;16.70;99.90
16273;DHT22;8244;50.044;9.006;2023-09-12T05:09:51;16.80;99.90
16273;DHT22;8244;50.044;9.006;2023-09-12T05:14:54;16.90;99.90
16273;DHT22;8244;50.044;9.006;2023-09-12T05:19:56;16.90;99.90
16273;DHT22;8244;50.044;9.006;2023-09-12T05:24:57;17.00;99.90
16273;DHT22;8244;50.044;9.006;2023-09-12T05:30:00;17.10;99.90
16273;DHT22;8244;50.044;9.006;2023-09-12T05:35:03;17.10;99.90
16273;DHT22;8244;50.044;9.006;2023-09-12T05:40:06;17.20;99.90
16273;DHT22;8244;50.044;9.006;2023-09-12T05:45:10;17.30;99.90
16273;DHT22;8244;50.044;9.006;2023-09-12T05:50:11;17.40;99.90
16273;DHT22;8244;50.044;9.006;2023-09-12T05:55:13;17.60;99.90
16273;DHT22;8244;50.044;9.006;2023-09-12T06:00:16;17.70;99.90
16273;DHT22;8244;50.044;9.006;2023-09-12T06:05:18;17.70;99.90
16273;DHT22;8244;50.044;9.006;2023-09-12T06:10:20;17.80;99.90
16273;DHT22;8244;50.044;9.006;2023-09-12T06:15:24;17.90;99.90
16273;DHT22;8244;50.044;9.006;2023-09-12T06:20:26;18.10;99.90
16273;DHT22;8244;50.044;9.006;2023-09-12T06:25:27;18.20;99.90
16273;DHT22;8244;50.044;9.006;2023-09-12T06:30:31;18.30;99.90
16273;DHT22;8244;50.044;9.006;2023-09-12T06:35:33;18.50;99.90
16273;DHT22;8244;50.044;9.006;2023-09-12T06:40:35;18.70;99.90
16273;DHT22;8244;50.044;9.006;2023-09-12T06:45:38;18.80;99.90
16273;DHT22;8244;50.044;9.006;2023-09-12T06:50:39;18.90;99.90
16273;DHT22;8244;50.044;9.006;2023-09-12T06:55:41;19.10;99.90
16273;DHT22;8244;50.044;9.006;2023-09-12T07:00:44;19.30;99.90
16273;DHT22;8244;50.044;9.006;2023-09-12T07:05:46;19.40;99.90
16273;DHT22;8244;50.044;9.006;2023-09-12T07:10:47;19.60;99.90
16273;DHT22;8244;50.044;9.006;2023-09-12T07:15:51;19.90;99.90
16273;DHT22;8244;50.044;9.006;2023-09-12T07:20:57;20.10;99.90
16273;DHT22;8244;50.044;9.006;2023-09-12T07:25:59;20.50;99.90
16273;DHT22;8244;50.044;9.006;2023-09-12T07:31:02;20.90;99.90
16273;DHT22;8244;50.044;9.006;2023-09-12T07:36:04;21.20;99.90
16273;DHT22;8244;50.044;9.006;2023-09-12T07:41:06;21.60;99.90
16273;DHT22;8244;50.044;9.006;2023-09-12T07:46:09;22.30;99.90
16273;DHT22;8244;50.044;9.006;2023-09-12T07:51:16;22.90;99.90
16273;DHT22;8244;50.044;9.006;2023-09-12T07:56:19;23.30;99.90
16273;DHT22;8244;50.044;9.006;2023-09-12T08:01:22;23.70;99.90
16273;DHT22;8244;50.044;9.006;2023-09-12T08:06:23;24.50;99.90
16273;DHT22;8244;50.044;9.006;2023-09-12T08:11:25;25.30;99.90
16273;DHT22;8244;50.044;9.006;2023-09-12T08:16:29;26.10;99.90
16273;DHT22;8244;50.044;9.006;2023-09-12T08:21:32;27.00;99.90
16273;DHT22;8244;50.044;9.006;2023-09-12T08:26:34;27.80;99.90
16273;DHT22;8244;50.044;9.006;2023-09-12T08:31:36;28.60;99.90
16273;DHT22;8244;50.044;9.006;2023-09-12T08:36:38;29.20;99.90
16273;DHT22;8244;50.044;9.006;2023-09-12T08:41:40;29.90;99.90
16273;DHT22;8244;50.044;9.006;2023-09-12T08:46:44;30.30;99.90
16273;DHT22;8244;50.044;9.006;2023-09-12T08:51:46;30.60;98.40
16273;DHT22;8244;50.044;9.006;2023-09-12T08:56:48;31.00;95.70
16273;DHT22;8244;50.044;9.006;2023-09-12T09:01:52;31.20;96.40
16273;DHT22;8244;50.044;9.006;2023-09-12T09:06:55;31.50;95.10
16273;DHT22;8244;50.044;9.006;2023-09-12T09:11:58;32.10;94.10
16273;DHT22;8244;50.044;9.006;2023-09-12T09:17:01;32.50;92.20
16273;DHT22;8244;50.044;9.006;2023-09-12T09:22:05;32.30;91.20
16273;DHT22;8244;50.044;9.006;2023-09-12T09:27:07;32.30;90.60
16273;DHT22;8244;50.044;9.006;2023-09-12T09:32:16;32.90;90.60
16273;DHT22;8244;50.044;9.006;2023-09-12T09:37:19;33.50;84.50
16273;DHT22;8244;50.044;9.006;2023-09-12T09:42:21;33.90;82.70
16273;DHT22;8244;50.044;9.006;2023-09-12T09:47:24;34.30;79.20
16273;DHT22;8244;50.044;9.006;2023-09-12T09:52:26;34.50;79.10
16273;DHT22;8244;50.044;9.006;2023-09-12T09:57:28;34.90;77.40
16273;DHT22;8244;50.044;9.006;2023-09-12T10:02:31;35.00;74.70
16273;DHT22;8244;50.044;9.006;2023-09-12T10:07:33;35.30;77.00
16273;DHT22;8244;50.044;9.006;2023-09-12T10:12:43;35.50;73.90
16273;DHT22;8244;50.044;9.006;2023-09-12T10:17:52;35.60;75.50
16273;DHT22;8244;50.044;9.006;2023-09-12T10:23:04;35.80;75.40
16273;DHT22;8244;50.044;9.006;2023-09-12T10:28:09;36.10;74.00
16273;DHT22;8244;50.044;9.006;2023-09-12T10:33:13;36.20;76.10
16273;DHT22;8244;50.044;9.006;2023-09-12T10:38:16;36.40;72.30
16273;DHT22;8244;50.044;9.006;2023-09-12T10:43:20;36.40;71.90
16273;DHT22;8244;50.044;9.006;2023-09-12T10:48:24;36.00;72.30
16273;DHT22;8244;50.044;9.006;2023-09-12T10:53:26;36.10;73.00
16273;DHT22;8244;50.044;9.006;2023-09-12T10:58:30;36.60;75.90
16273;DHT22;8244;50.044;9.006;2023-09-12T11:03:39;36.90;70.10
16273;DHT22;8244;50.044;9.006;2023-09-12T11:08:41;36.90;76.00
16273;DHT22;8244;50.044;9.006;2023-09-12T11:13:43;37.20;76.60
16273;DHT22;8244;50.044;9.006;2023-09-12T11:19:16;37.60;73.20
16273;DHT22;8244;50.044;9.006;2023-09-12T11:24:20;37.90;72.10
16273;DHT22;8244;50.044;9.006;2023-09-12T11:29:21;37.90;71.10
16273;DHT22;8244;50.044;9.006;2023-09-12T11:34:26;38.00;70.50
16273;DHT22;8244;50.044;9.006;2023-09-12T11:39:29;38.10;69.90
16273;DHT22;8244;50.044;9.006;2023-09-12T11:44:31;38.10;67.40
16273;DHT22;8244;50.044;9.006;2023-09-12T11:49:37;37.80;69.40
16273;DHT22;8244;50.044;9.006;2023-09-12T11:54:40;37.90;70.80
16273;DHT22;8244;50.044;9.006;2023-09-12T11:59:43;38.10;68.70
16273;DHT22;8244;50.044;9.006;2023-09-12T12:04:47;37.90;65.80
16273;DHT22;8244;50.044;9.006;2023-09-12T12:09:49;37.90;66.50
16273;DHT22;8244;50.044;9.006;2023-09-12T12:14:51;38.10;64.20
16273;DHT22;8244;50.044;9.006;2023-09-12T12:19:55;38.00;65.00
16273;DHT22;8244;50.044;9.006;2023-09-12T12:25:05;38.00;65.30
16273;DHT22;8244;50.044;9.006;2023-09-12T12:30:09;38.10;63.90
16273;DHT22;8244;50.044;9.006;2023-09-12T12:35:17;37.90;62.60
16273;DHT22;8244;50.044;9.006;2023-09-12T12:40:19;37.90;68.30
16273;DHT22;8244;50.044;9.006;2023-09-12T12:45:22;38.30;66.30
16273;DHT22;8244;50.044;9.006;2023-09-12T12:50:26;38.60;64.40
16273;DHT22;8244;50.044;9.006;2023-09-12T12:55:28;38.30;66.80
16273;DHT22;8244;50.044;9.006;2023-09-12T13:00:30;38.30;65.20
16273;DHT22;8244;50.044;9.006;2023-09-12T13:05:33;38.20;66.00
16273;DHT22;8244;50.044;9.006;2023-09-12T13:10:36;38.30;62.50
16273;DHT22;8244;50.044;9.006;2023-09-12T13:15:38;37.90;62.70
16273;DHT22;8244;50.044;9.006;2023-09-12T13:20:41;37.90;66.50
16273;DHT22;8244;50.044;9.006;2023-09-12T13:25:43;38.00;66.30
16273;DHT22;8244;50.044;9.006;2023-09-12T13:30:45;38.30;65.80
16273;DHT22;8244;50.044;9.006;2023-09-12T13:35:48;38.30;66.40
16273;DHT22;8244;50.044;9.006;2023-09-12T13:40:50;38.20;65.90
16273;DHT22;8244;50.044;9.006;2023-09-12T13:45:52;38.20;65.60
16273;DHT22;8244;50.044;9.006;2023-09-12T13:50:55;37.80;65.00
16273;DHT22;8244;50.044;9.006;2023-09-12T13:55:56;37.50;67.30
16273;DHT22;8244;50.044;9.006;2023-09-12T14:00:58;37.40;66.60
16273;DHT22;8244;50.044;9.006;2023-09-12T14:06:02;37.20;67.50
16273;DHT22;8244;50.044;9.006;2023-09-12T14:11:03;37.10;67.60
16273;DHT22;8244;50.044;9.006;2023-09-12T14:16:05;36.80;68.30
16273;DHT22;8244;50.044;9.006;2023-09-12T14:21:08;36.70;68.50
16273;DHT22;8244;50.044;9.006;2023-09-12T14:26:10;36.60;66.80
16273;DHT22;8244;50.044;9.006;2023-09-12T14:31:11;36.40;68.40
16273;DHT22;8244;50.044;9.006;2023-09-12T14:36:17;36.20;67.60
16273;DHT22;8244;50.044;9.006;2023-09-12T14:41:19;36.10;69.80
16273;DHT22;8244;50.044;9.006;2023-09-12T14:46:21;36.10;70.50
16273;DHT22;8244;50.044;9.006;2023-09-12T14:51:24;36.10;69.60
16273;DHT22;8244;50.044;9.006;2023-09-12T14:56:26;36.10;68.60
16273;DHT22;8244;50.044;9.006;2023-09-12T15:01:28;36.00;67.20
16273;DHT22;8244;50.044;9.006;2023-09-12T15:06:32;35.90;69.90
16273;DHT22;8244;50.044;9.006;2023-09-12T15:11:33;35.60;70.10
16273;DHT22;8244;50.044;9.006;2023-09-12T15:16:35;35.40;68.80
16273;DHT22;8244;50.044;9.006;2023-09-12T15:21:38;35.30;70.10
16273;DHT22;8244;50.044;9.006;2023-09-12T15:26:40;35.10;68.50
16273;DHT22;8244;50.044;9.006;2023-09-12T15:31:42;34.90;70.80
16273;DHT22;8244;50.044;9.006;2023-09-12T15:36:46;34.80;70.40
16273;DHT22;8244;50.044;9.006;2023-09-12T15:41:48;34.70;70.40
16273;DHT22;8244;50.044;9.006;2023-09-12T15:46:50;34.50;73.80
16273;DHT22;8244;50.044;9.006;2023-09-12T15:51:53;34.50;74.10
16273;DHT22;8244;50.044;9.006;2023-09-12T15:56:54;34.50;74.20
16273;DHT22;8244;50.044;9.006;2023-09-12T16:01:56;34.40;72.30
16273;DHT22;8244;50.044;9.006;2023-09-12T16:06:59;34.10;73.20
16273;DHT22;8244;50.044;9.006;2023-09-12T16:12:01;34.00;74.40
16273;DHT22;8244;50.044;9.006;2023-09-12T16:17:03;33.90;75.40
16273;DHT22;8244;50.044;9.006;2023-09-12T16:22:06;33.70;74.70
16273;DHT22;8244;50.044;9.006;2023-09-12T16:27:10;33.50;76.30
16273;DHT22;8244;50.044;9.006;2023-09-12T16:32:12;33.30;76.20
16273;DHT22;8244;50.044;9.006;2023-09-12T16:37:15;33.20;76.50
16273;DHT22;8244;50.044;9.006;2023-09-12T16:42:17;33.10;75.60
16273;DHT22;8244;50.044;9.006;2023-09-12T16:47:18;32.90;76.20
16273;DHT22;8244;50.044;9.006;2023-09-12T16:52:21;32.70;78.00
16273;DHT22;8244;50.044;9.006;2023-09-12T16:57:23;32.50;82.10
16273;DHT22;8244;50.044;9.006;2023-09-12T17:02:25;32.40;82.90
16273;DHT22;8244;50.044;9.006;2023-09-12T17:07:28;32.20;83.80
16273;DHT22;8244;50.044;9.006;2023-09-12T17:12:30;32.00;84.40
16273;DHT22;8244;50.044;9.006;2023-09-12T17:17:32;31.80;86.50
16273;DHT22;8244;50.044;9.006;2023-09-12T17:22:35;31.50;84.40
16273;DHT22;8244;50.044;9.006;2023-09-12T17:27:37;31.30;84.60
16273;DHT22;8244;50.044;9.006;2023-09-12T17:32:38;31.00;86.80
16273;DHT22;8244;50.044;9.006;2023-09-12T17:37:42;30.70;88.10
16273;DHT22;8244;50.044;9.006;2023-09-12T17:42:43;30.30;88.10
16273;DHT22;8244;50.044;9.006;2023-09-12T17:47:45;30.10;89.30
16273;DHT22;8244;50.044;9.006;2023-09-12T17:52:48;29.80;89.80
16273;DHT22;8244;50.044;9.006;2023-09-12T17:57:50;29.40;90.50
16273;DHT22;8244;50.044;9.006;2023-09-12T18:02:52;29.20;91.00
16273;DHT22;8244;50.044;9.006;2023-09-12T18:07:55;29.00;91.60
16273;DHT22;8244;50.044;9.006;2023-09-12T18:12:58;28.80;91.80
16273;DHT22;8244;50.044;9.006;2023-09-12T18:18:01;28.70;92.80
16273;DHT22;8244;50.044;9.006;2023-09-12T18:23:04;28.50;94.70
16273;DHT22;8244;50.044;9.006;2023-09-12T18:28:05;28.40;96.00
16273;DHT22;8244;50.044;9.006;2023-09-12T18:33:07;28.20;97.30
16273;DHT22;8244;50.044;9.006;2023-09-12T18:38:10;28.10;98.40
16273;DHT22;8244;50.044;9.006;2023-09-12T18:43:12;27.90;99.90
16273;DHT22;8244;50.044;9.006;2023-09-12T18:48:13;27.70;99.90
16273;DHT22;8244;50.044;9.006;2023-09-12T18:53:16;27.60;99.90
16273;DHT22;8244;50.044;9.006;2023-09-12T18:58:19;27.40;99.90
16273;DHT22;8244;50.044;9.006;2023-09-12T19:03:21;27.20;99.90
16273;DHT22;8244;50.044;9.006;2023-09-12T19:08:24;27.10;99.90
16273;DHT22;8244;50.044;9.006;2023-09-12T19:13:25;27.00;99.90
16273;DHT22;8244;50.044;9.006;2023-09-12T19:18:29;27.00;99.90
16273;DHT22;8244;50.044;9.006;2023-09-12T19:23:32;26.80;99.90
16273;DHT22;8244;50.044;9.006;2023-09-12T19:28:33;26.70;99.90
16273;DHT22;8244;50.044;9.006;2023-09-12T19:33:35;26.60;99.90
16273;DHT22;8244;50.044;9.006;2023-09-12T19:38:38;26.50;99.90
16273;DHT22;8244;50.044;9.006;2023-09-12T19:43:40;26.40;99.90
16273;DHT22;8244;50.044;9.006;2023-09-12T19:48:41;26.30;99.90
16273;DHT22;8244;50.044;9.006;2023-09-12T19:53:44;26.20;99.90
16273;DHT22;8244;50.044;9.006;2023-09-12T19:58:46;25.90;99.90
16273;DHT22;8244;50.044;9.006;2023-09-12T20:03:48;25.70;99.90
16273;DHT22;8244;50.044;9.006;2023-09-12T20:08:51;25.30;99.90
16273;DHT22;8244;50.044;9.006;2023-09-12T20:13:52;24.80;99.90
16273;DHT22;8244;50.044;9.006;2023-09-12T20:18:54;24.60;99.90
16273;DHT22;8244;50.044;9.006;2023-09-12T20:23:57;24.40;99.90
16273;DHT22;8244;50.044;9.006;2023-09-12T20:28:59;24.20;99.90
16273;DHT22;8244;50.044;9.006;2023-09-12T20:34:01;24.00;99.90
16273;DHT22;8244;50.044;9.006;2023-09-12T20:39:24;23.90;99.90
16273;DHT22;8244;50.044;9.006;2023-09-12T20:44:26;23.80;99.90
16273;DHT22;8244;50.044;9.006;2023-09-12T20:49:28;23.70;99.90
16273;DHT22;8244;50.044;9.006;2023-09-12T20:54:33;23.60;99.90
16273;DHT22;8244;50.044;9.006;2023-09-12T20:59:36;23.50;99.90
16273;DHT22;8244;50.044;9.006;2023-09-12T21:04:38;23.40;99.90
16273;DHT22;8244;50.044;9.006;2023-09-12T21:09:41;23.40;99.90
16273;DHT22;8244;50.044;9.006;2023-09-12T21:14:43;23.30;99.90
16273;DHT22;8244;50.044;9.006;2023-09-12T21:19:45;23.30;99.90
16273;DHT22;8244;50.044;9.006;2023-09-12T21:24:48;23.10;99.90
16273;DHT22;8244;50.044;9.006;2023-09-12T21:29:49;23.00;99.90
16273;DHT22;8244;50.044;9.006;2023-09-12T21:35:09;22.80;99.90
16273;DHT22;8244;50.044;9.006;2023-09-12T21:40:15;22.60;99.90
16273;DHT22;8244;50.044;9.006;2023-09-12T21:45:17;22.50;99.90
16273;DHT22;8244;50.044;9.006;2023-09-12T21:50:19;22.40;99.90
16273;DHT22;8244;50.044;9.006;2023-09-12T21:55:22;22.40;99.90
16273;DHT22;8244;50.044;9.006;2023-09-12T22:00:24;22.30;99.90
16273;DHT22;8244;50.044;9.006;2023-09-12T22:05:29;22.30;99.90
16273;DHT22;8244;50.044;9.006;2023-09-12T22:10:32;22.20;99.90
16273;DHT22;8244;50.044;9.006;2023-09-12T22:15:34;22.20;99.90
16273;DHT22;8244;50.044;9.006;2023-09-12T22:20:40;22.20;99.90
16273;DHT22;8244;50.044;9.006;2023-09-12T22:25:44;22.00;99.90
16273;DHT22;8244;50.044;9.006;2023-09-12T22:30:45;21.90;99.90
16273;DHT22;8244;50.044;9.006;2023-09-12T22:35:52;21.80;99.90
16273;DHT22;8244;50.044;9.006;2023-09-12T22:40:55;21.70;99.90
16273;DHT22;8244;50.044;9.006;2023-09-12T22:45:57;21.60;99.90
16273;DHT22;8244;50.044;9.006;2023-09-12T22:50:59;21.60;99.90
16273;DHT22;8244;50.044;9.006;2023-09-12T22:56:02;21.50;99.90
16273;DHT22;8244;50.044;9.006;2023-09-12T23:01:04;21.40;99.90
16273;DHT22;8244;50.044;9.006;2023-09-12T23:06:07;21.30;99.90
16273;DHT22;8244;50.044;9.006;2023-09-12T23:11:10;21.10;99.90
16273;DHT22;8244;50.044;9.006;2023-09-12T23:16:13;21.10;99.90
16273;DHT22;8244;50.044;9.006;2023-09-12T23:21:15;20.90;99.90
16273;DHT22;8244;50.044;9.006;2023-09-12T23:26:18;20.80;99.90
16273;DHT22;8244;50.044;9.006;2023-09-12T23:31:20;20.70;99.90
16273;DHT22;8244;50.044;9.006;2023-09-12T23:36:21;20.60;99.90
16273;DHT22;8244;50.044;9.006;2023-09-12T23:41:27;20.60;99.90
16273;DHT22;8244;50.044;9.006;2023-09-12T23:46:28;20.60;99.90
16273;DHT22;8244;50.044;9.006;2023-09-12T23:51:30;20.60;99.90
16273;DHT22;8244;50.044;9.006;2023-09-12T23:56:33;20.50;99.90
